Time;durP1;ratioP1;P1;durP2;ratioP2;P2;SDS_P1;SDS_P2;PMS_P1;PMS_P2;Temp;Humidity;BMP_temperature;BMP_pressure;BME280_temperature;BME280_humidity;BME280_pressure;Samples;Min_cycle;Max_cycle;Signal;HPM_P1;HPM_P2
2021/12/30 00:01:21;;;;;;;3.25;1.02;;;;;;;;;;4990964;28;20114;-64
2021/12/30 00:04:07;;;;;;;0.70;0.70;;;;;;;;;;4953034;28;20038;-65
2021/12/30 00:06:52;;;;;;;3.20;0.85;;;;;;;;;;4962794;28;20101;-65
2021/12/30 00:09:38;;;;;;;1.73;0.80;;;;;;;;;;4978114;28;20037;-63
2021/12/30 00:12:23;;;;;;;3.17;1.10;;;;;;;;;;4991525;28;20040;-63
2021/12/30 00:15:09;;;;;;;1.48;1.30;;;;;;;;;;4990654;28;20049;-74
2021/12/30 00:17:54;;;;;;;3.03;0.95;;;;;;;;;;4977991;28;20061;-62
2021/12/30 00:20:40;;;;;;;2.05;0.65;;;;;;;;;;4977238;28;20034;-73
2021/12/30 00:23:25;;;;;;;0.82;0.80;;;;;;;;;;4977754;28;20050;-74
2021/12/30 00:26:10;;;;;;;1.40;0.85;;;;;;;;;;4976851;28;20034;-72
2021/12/30 00:28:56;;;;;;;11.48;1.05;;;;;;;;;;4985499;28;20026;-72
2021/12/30 00:31:41;;;;;;;1.65;0.85;;;;;;;;;;4976484;28;20045;-72
2021/12/30 00:34:26;;;;;;;1.60;0.80;;;;;;;;;;4991071;28;20044;-62
2021/12/30 00:37:11;;;;;;;4.47;1.45;;;;;;;;;;4957252;28;20186;-66
2021/12/30 00:39:57;;;;;;;1.38;0.80;;;;;;;;;;4952700;28;20049;-66
2021/12/30 00:42:42;;;;;;;1.38;0.80;;;;;;;;;;4969834;28;20410;-68
2021/12/30 00:45:28;;;;;;;1.92;1.10;;;;;;;;;;4977391;28;20053;-70
2021/12/30 00:48:13;;;;;;;2.40;0.95;;;;;;;;;;4957449;28;20038;-68
2021/12/30 00:50:59;;;;;;;4.60;1.10;;;;;;;;;;4944726;28;20027;-67
2021/12/30 00:53:44;;;;;;;3.28;1.10;;;;;;;;;;4989613;28;20034;-73
2021/12/30 00:56:29;;;;;;;1.33;0.90;;;;;;;;;;4977452;28;20057;-70
2021/12/30 00:59:15;;;;;;;2.50;0.95;;;;;;;;;;4979867;28;20083;-69
2021/12/30 01:02:00;;;;;;;5.50;1.20;;;;;;;;;;4994321;28;20374;-68
2021/12/30 01:04:45;;;;;;;2.30;1.17;;;;;;;;;;4963863;28;20041;-67
2021/12/30 01:07:31;;;;;;;1.92;0.85;;;;;;;;;;4975295;28;20042;-68
2021/12/30 01:10:17;;;;;;;1.50;0.80;;;;;;;;;;4976702;28;20030;-67
2021/12/30 01:13:07;;;;;;;2.78;1.00;;;;;;;;;;4962884;28;20057;-65
2021/12/30 01:16:02;;;;;;;1.73;1.00;;;;;;;;;;4976984;28;20040;-71
2021/12/30 01:21:46;;;;;;;3.88;1.10;;;;;;;;;;4976410;28;20473;-70
2021/12/30 01:24:31;;;;;;;3.05;0.90;;;;;;;;;;4975732;28;20644;-71
2021/12/30 01:27:16;;;;;;;4.32;1.13;;;;;;;;;;4989634;28;20527;-70
2021/12/30 01:30:05;;;;;;;1.98;0.80;;;;;;;;;;4975804;28;20058;-68
2021/12/30 01:32:50;;;;;;;4.70;1.02;;;;;;;;;;4984698;28;20014;-65
2021/12/30 01:35:36;;;;;;;4.10;1.00;;;;;;;;;;4989534;28;20571;-63
2021/12/30 01:38:21;;;;;;;4.05;1.00;;;;;;;;;;4989396;28;20026;-63
2021/12/30 01:41:07;;;;;;;2.85;0.93;;;;;;;;;;4987609;28;20036;-64
2021/12/30 01:43:52;;;;;;;2.83;1.20;;;;;;;;;;4989209;28;20089;-67
2021/12/30 01:46:39;;;;;;;1.95;1.00;;;;;;;;;;4976402;28;20127;-66
2021/12/30 01:49:25;;;;;;;1.95;1.10;;;;;;;;;;4989036;28;20169;-68
2021/12/30 01:52:10;;;;;;;2.78;1.20;;;;;;;;;;4989862;28;20424;-69
2021/12/30 01:54:55;;;;;;;0.93;0.80;;;;;;;;;;4989123;28;20515;-69
2021/12/30 01:57:41;;;;;;;3.03;1.13;;;;;;;;;;4976403;28;20029;-69
2021/12/30 02:00:27;;;;;;;2.67;1.25;;;;;;;;;;4975895;28;20128;-72
2021/12/30 02:03:13;;;;;;;2.47;0.98;;;;;;;;;;4978289;28;20046;-70
2021/12/30 02:05:58;;;;;;;4.90;0.90;;;;;;;;;;4993454;28;20034;-69
2021/12/30 02:08:43;;;;;;;2.75;1.10;;;;;;;;;;4976079;28;20022;-64
2021/12/30 02:11:29;;;;;;;8.10;1.38;;;;;;;;;;4975146;28;20034;-63
2021/12/30 02:14:15;;;;;;;2.63;1.10;;;;;;;;;;4975916;28;20038;-66
2021/12/30 02:17:01;;;;;;;2.92;1.13;;;;;;;;;;4975279;28;20486;-65
2021/12/30 02:19:46;;;;;;;3.03;1.17;;;;;;;;;;4988844;28;20394;-64
2021/12/30 02:22:31;;;;;;;1.80;1.25;;;;;;;;;;4967106;28;20073;-64
2021/12/30 02:25:17;;;;;;;2.63;1.05;;;;;;;;;;4961892;28;20030;-73
2021/12/30 02:28:12;;;;;;;3.42;0.90;;;;;;;;;;4975659;28;20560;-69
2021/12/30 02:30:58;;;;;;;2.20;1.10;;;;;;;;;;4975124;28;20041;-69
2021/12/30 02:33:44;;;;;;;4.20;1.35;;;;;;;;;;4989333;28;20117;-69
2021/12/30 02:36:31;;;;;;;2.65;1.55;;;;;;;;;;4996304;28;20026;-72
2021/12/30 02:39:20;;;;;;;3.55;1.52;;;;;;;;;;4975802;28;20030;-70
2021/12/30 02:42:05;;;;;;;4.03;1.70;;;;;;;;;;4974759;28;20445;-68
2021/12/30 02:44:50;;;;;;;3.90;1.30;;;;;;;;;;4975478;28;20034;-72
2021/12/30 02:47:36;;;;;;;5.07;1.33;;;;;;;;;;4985768;28;20065;-70
2021/12/30 02:50:21;;;;;;;3.65;1.92;;;;;;;;;;4974953;28;20470;-72
2021/12/30 02:53:06;;;;;;;3.35;1.27;;;;;;;;;;4974676;28;20606;-71
2021/12/30 02:55:53;;;;;;;2.45;0.90;;;;;;;;;;4988641;28;20489;-73
2021/12/30 02:58:38;;;;;;;3.47;1.08;;;;;;;;;;4988206;28;20036;-70
2021/12/30 03:01:29;;;;;;;3.75;1.17;;;;;;;;;;4975403;28;20026;-66
2021/12/30 03:04:14;;;;;;;3.80;1.52;;;;;;;;;;4975341;28;20093;-70
2021/12/30 03:06:59;;;;;;;4.97;1.10;;;;;;;;;;4989524;28;22034;-70
2021/12/30 03:09:45;;;;;;;4.03;1.45;;;;;;;;;;4980551;28;20078;-70
2021/12/30 03:12:30;;;;;;;3.67;1.33;;;;;;;;;;4961042;28;20018;-72
2021/12/30 03:15:16;;;;;;;3.47;1.15;;;;;;;;;;4975192;28;20027;-70
2021/12/30 03:18:01;;;;;;;5.43;1.20;;;;;;;;;;4974466;28;20019;-72
2021/12/30 03:20:46;;;;;;;8.05;1.60;;;;;;;;;;4975543;28;20422;-69
2021/12/30 03:23:32;;;;;;;2.15;1.00;;;;;;;;;;4972735;28;20045;-73
2021/12/30 03:26:17;;;;;;;1.95;1.55;;;;;;;;;;4974898;28;20409;-72
2021/12/30 03:29:04;;;;;;;1.85;1.00;;;;;;;;;;4988000;28;20038;-70
2021/12/30 03:31:49;;;;;;;2.75;1.23;;;;;;;;;;4977692;28;20493;-71
2021/12/30 03:34:34;;;;;;;5.07;1.30;;;;;;;;;;4991415;28;20046;-73
2021/12/30 03:37:19;;;;;;;3.50;1.30;;;;;;;;;;4992289;28;20044;-68
2021/12/30 03:40:06;;;;;;;4.88;1.40;;;;;;;;;;4997656;28;20026;-68
2021/12/30 03:42:52;;;;;;;5.97;1.17;;;;;;;;;;4979233;28;20432;-73
2021/12/30 03:45:37;;;;;;;1.42;0.95;;;;;;;;;;4959107;28;20070;-70
2021/12/30 03:48:23;;;;;;;3.95;1.42;;;;;;;;;;4959355;28;20034;-69
2021/12/30 03:51:13;;;;;;;1.98;1.00;;;;;;;;;;4959112;28;20374;-71
2021/12/30 03:53:58;;;;;;;6.65;1.65;;;;;;;;;;4961633;28;20065;-71
2021/12/30 03:56:44;;;;;;;5.07;1.23;;;;;;;;;;4978121;28;20513;-68
2021/12/30 03:59:29;;;;;;;4.40;1.67;;;;;;;;;;4991068;28;20030;-71
2021/12/30 04:02:14;;;;;;;3.08;1.45;;;;;;;;;;4964212;28;20129;-67
2021/12/30 04:04:59;;;;;;;4.45;1.27;;;;;;;;;;4967373;28;20022;-68
2021/12/30 04:07:45;;;;;;;2.53;1.20;;;;;;;;;;4978211;28;20034;-67
2021/12/30 04:10:30;;;;;;;2.42;0.98;;;;;;;;;;4990712;28;20031;-67
2021/12/30 04:13:15;;;;;;;4.80;1.45;;;;;;;;;;4985323;28;20428;-67
2021/12/30 04:16:01;;;;;;;6.43;1.63;;;;;;;;;;4990478;28;20030;-73
2021/12/30 04:18:48;;;;;;;7.43;1.33;;;;;;;;;;4978129;28;20030;-66
2021/12/30 04:21:33;;;;;;;3.58;1.48;;;;;;;;;;4990545;28;20030;-67
2021/12/30 04:24:19;;;;;;;3.10;1.40;;;;;;;;;;4977928;28;20033;-70
2021/12/30 04:27:04;;;;;;;3.50;1.13;;;;;;;;;;4977141;28;20113;-67
2021/12/30 04:29:49;;;;;;;7.78;3.28;;;;;;;;;;4964267;28;20165;-67
2021/12/30 04:32:34;;;;;;;6.55;1.70;;;;;;;;;;4977815;28;20029;-63
2021/12/30 04:35:20;;;;;;;6.80;2.20;;;;;;;;;;4976873;28;20058;-74
2021/12/30 04:38:05;;;;;;;9.80;3.75;;;;;;;;;;4977708;28;20026;-68
2021/12/30 04:40:50;;;;;;;3.53;1.75;;;;;;;;;;4976861;28;20045;-67
2021/12/30 04:43:36;;;;;;;5.45;1.40;;;;;;;;;;4994990;28;20042;-70
2021/12/30 04:46:21;;;;;;;3.40;1.40;;;;;;;;;;4992952;28;20482;-69
2021/12/30 04:49:06;;;;;;;7.82;1.50;;;;;;;;;;4977488;28;20117;-68
2021/12/30 04:51:52;;;;;;;5.50;1.42;;;;;;;;;;4976733;28;20393;-69
2021/12/30 04:54:37;;;;;;;2.75;1.13;;;;;;;;;;4977275;28;20046;-67
2021/12/30 04:57:22;;;;;;;2.80;0.95;;;;;;;;;;4976168;28;20506;-66
2021/12/30 05:00:09;;;;;;;4.10;1.33;;;;;;;;;;4977333;28;20393;-68
2021/12/30 05:03:14;;;;;;;2.80;1.20;;;;;;;;;;4989682;28;20022;-68
2021/12/30 05:05:59;;;;;;;2.30;1.48;;;;;;;;;;4977261;28;20035;-67
2021/12/30 05:08:44;;;;;;;4.38;1.50;;;;;;;;;;4990318;28;20030;-67
2021/12/30 05:11:29;;;;;;;3.60;1.02;;;;;;;;;;4989909;28;20061;-66
2021/12/30 05:14:15;;;;;;;4.22;1.63;;;;;;;;;;4957555;28;20034;-64
2021/12/30 05:17:03;;;;;;;2.30;1.38;;;;;;;;;;4998007;28;20061;-64
2021/12/30 05:19:48;;;;;;;3.83;1.52;;;;;;;;;;4976955;28;20081;-63
2021/12/30 05:22:33;;;;;;;6.68;1.60;;;;;;;;;;4976139;28;20113;-63
2021/12/30 05:25:19;;;;;;;4.05;1.40;;;;;;;;;;4990464;28;20026;-67
2021/12/30 05:28:04;;;;;;;3.78;1.42;;;;;;;;;;4975824;28;20033;-66
2021/12/30 05:30:50;;;;;;;5.55;1.67;;;;;;;;;;4976819;28;20061;-65
2021/12/30 05:33:35;;;;;;;5.45;1.50;;;;;;;;;;4962401;28;20393;-63
2021/12/30 05:36:21;;;;;;;2.30;1.40;;;;;;;;;;4976518;28;20489;-65
2021/12/30 05:39:08;;;;;;;2.90;1.20;;;;;;;;;;4975707;28;20113;-64
2021/12/30 05:41:53;;;;;;;3.80;1.10;;;;;;;;;;4976405;28;20030;-64
2021/12/30 05:44:38;;;;;;;4.43;0.98;;;;;;;;;;4963394;28;20439;-64
2021/12/30 05:47:24;;;;;;;4.55;0.90;;;;;;;;;;4979544;28;20026;-67
2021/12/30 05:50:09;;;;;;;4.32;1.00;;;;;;;;;;4976341;28;20029;-71
2021/12/30 05:52:55;;;;;;;4.15;1.20;;;;;;;;;;4989316;28;20026;-71
2021/12/30 05:55:40;;;;;;;2.20;0.80;;;;;;;;;;4989399;28;20069;-70
2021/12/30 05:58:25;;;;;;;3.25;0.90;;;;;;;;;;4989302;28;20425;-70
2021/12/30 06:01:11;;;;;;;0.88;0.88;;;;;;;;;;4970340;28;20031;-71
2021/12/30 06:03:56;;;;;;;5.18;1.10;;;;;;;;;;4972054;28;20030;-69
2021/12/30 06:06:41;;;;;;;7.88;0.88;;;;;;;;;;4975871;28;20060;-69
2021/12/30 06:09:27;;;;;;;1.85;1.25;;;;;;;;;;4975284;28;20052;-69
2021/12/30 06:12:12;;;;;;;3.55;0.77;;;;;;;;;;4962440;28;20040;-70
2021/12/30 06:14:57;;;;;;;0.88;0.60;;;;;;;;;;4975381;28;20034;-68
2021/12/30 06:17:43;;;;;;;0.73;0.60;;;;;;;;;;4976259;28;20023;-70
2021/12/30 06:20:29;;;;;;;1.88;0.65;;;;;;;;;;4976966;28;20030;-71
2021/12/30 06:23:14;;;;;;;0.80;0.52;;;;;;;;;;4980419;28;20030;-69
2021/12/30 06:26:00;;;;;;;1.42;0.50;;;;;;;;;;4956579;28;20126;-64
2021/12/30 06:28:45;;;;;;;0.50;0.50;;;;;;;;;;4974272;28;20425;-64
2021/12/30 06:31:30;;;;;;;1.80;1.00;;;;;;;;;;4975051;28;20030;-64
2021/12/30 06:34:15;;;;;;;2.85;1.08;;;;;;;;;;4962246;28;20085;-65
2021/12/30 06:37:01;;;;;;;2.17;0.70;;;;;;;;;;4975017;28;20037;-63
2021/12/30 06:39:46;;;;;;;1.25;0.88;;;;;;;;;;4974702;28;20027;-63
2021/12/30 06:42:31;;;;;;;4.93;1.45;;;;;;;;;;4962120;28;20096;-73
2021/12/30 06:45:17;;;;;;;4.53;0.82;;;;;;;;;;4988655;28;20027;-70
2021/12/30 06:48:05;;;;;;;3.03;1.05;;;;;;;;;;4975428;28;20505;-69
2021/12/30 06:50:53;;;;;;;2.08;1.17;;;;;;;;;;4976032;28;20088;-68
2021/12/30 06:53:38;;;;;;;2.25;1.10;;;;;;;;;;4981554;28;20038;-68
2021/12/30 06:56:24;;;;;;;4.28;1.15;;;;;;;;;;4988179;28;20121;-69
2021/12/30 06:59:14;;;;;;;1.38;0.90;;;;;;;;;;4989182;28;20030;-70
2021/12/30 07:01:59;;;;;;;1.10;0.88;;;;;;;;;;4974782;28;20042;-68
2021/12/30 07:04:45;;;;;;;1.00;0.55;;;;;;;;;;4990139;28;20030;-70
2021/12/30 07:07:30;;;;;;;2.13;0.70;;;;;;;;;;4978659;28;20081;-69
2021/12/30 07:10:15;;;;;;;1.25;0.80;;;;;;;;;;4965520;28;20046;-72
2021/12/30 07:13:00;;;;;;;1.05;0.80;;;;;;;;;;4978360;28;20041;-72
2021/12/30 07:15:46;;;;;;;4.97;1.08;;;;;;;;;;4978866;28;20500;-68
2021/12/30 07:18:31;;;;;;;2.33;1.08;;;;;;;;;;4978118;28;20058;-63
2021/12/30 07:21:17;;;;;;;4.88;1.10;;;;;;;;;;4978801;28;20125;-63
2021/12/30 07:24:02;;;;;;;2.20;1.40;;;;;;;;;;4984206;28;20030;-61
2021/12/30 07:26:48;;;;;;;1.30;0.70;;;;;;;;;;4965832;28;20030;-61
2021/12/30 07:29:34;;;;;;;0.60;0.50;;;;;;;;;;4972958;28;20367;-62
2021/12/30 07:32:20;;;;;;;1.40;0.70;;;;;;;;;;4961631;28;20529;-63
2021/12/30 07:35:05;;;;;;;1.92;0.63;;;;;;;;;;4991989;28;20033;-65
2021/12/30 07:37:51;;;;;;;0.68;0.60;;;;;;;;;;4977808;28;20065;-61
2021/12/30 07:40:36;;;;;;;2.53;0.90;;;;;;;;;;4965209;28;20030;-68
2021/12/30 07:43:21;;;;;;;0.55;0.52;;;;;;;;;;4970033;28;20510;-67
2021/12/30 07:46:09;;;;;;;1.70;0.70;;;;;;;;;;4959238;28;20034;-65
2021/12/30 07:48:54;;;;;;;6.10;3.08;;;;;;;;;;4969663;28;20045;-66
2021/12/30 07:51:40;;;;;;;2.65;1.95;;;;;;;;;;4964824;28;20434;-66
2021/12/30 07:54:25;;;;;;;0.77;0.77;;;;;;;;;;4990930;28;20457;-66
2021/12/30 07:57:11;;;;;;;2.38;0.73;;;;;;;;;;4999681;28;20026;-68
2021/12/30 07:59:56;;;;;;;1.30;0.75;;;;;;;;;;4990883;28;20031;-71
2021/12/30 08:02:42;;;;;;;2.10;1.00;;;;;;;;;;4978450;28;20024;-67
2021/12/30 08:05:28;;;;;;;2.78;0.80;;;;;;;;;;4977656;28;20069;-68
2021/12/30 08:08:13;;;;;;;2.70;0.90;;;;;;;;;;4978509;28;20614;-69
2021/12/30 08:10:59;;;;;;;2.35;0.70;;;;;;;;;;4972405;28;20089;-68
2021/12/30 08:13:44;;;;;;;0.82;0.60;;;;;;;;;;4959850;28;20478;-63
2021/12/30 08:16:29;;;;;;;1.90;0.90;;;;;;;;;;4977524;28;20026;-67
2021/12/30 08:19:14;;;;;;;2.10;0.80;;;;;;;;;;4977306;28;20389;-66
2021/12/30 08:22:00;;;;;;;1.58;0.80;;;;;;;;;;4977983;28;20023;-66
2021/12/30 08:24:46;;;;;;;1.58;0.70;;;;;;;;;;4977299;28;20034;-66
2021/12/30 08:27:31;;;;;;;1.80;0.70;;;;;;;;;;4994866;28;20022;-67
2021/12/30 08:30:18;;;;;;;1.05;0.63;;;;;;;;;;4980294;28;20030;-66
2021/12/30 08:33:03;;;;;;;2.08;0.85;;;;;;;;;;4991357;28;20057;-68
2021/12/30 08:35:49;;;;;;;13.15;8.55;;;;;;;;;;4976550;28;20045;-63
2021/12/30 08:38:34;;;;;;;4.25;2.47;;;;;;;;;;4990932;28;20030;-62
2021/12/30 08:41:19;;;;;;;2.08;0.77;;;;;;;;;;4971127;28;20073;-62
2021/12/30 08:44:05;;;;;;;1.50;0.90;;;;;;;;;;4977367;28;20064;-64
2021/12/30 08:46:50;;;;;;;1.92;0.82;;;;;;;;;;4990161;28;20029;-62
2021/12/30 08:49:35;;;;;;;5.07;1.10;;;;;;;;;;4977177;28;20042;-66
2021/12/30 08:52:22;;;;;;;1.75;0.73;;;;;;;;;;4971306;28;20035;-69
2021/12/30 08:55:07;;;;;;;2.60;1.02;;;;;;;;;;4971577;28;20485;-63
2021/12/30 08:57:52;;;;;;;0.70;0.70;;;;;;;;;;4963792;28;20168;-62
2021/12/30 09:00:41;;;;;;;2.92;1.00;;;;;;;;;;4998307;28;20100;-62
2021/12/30 09:03:26;;;;;;;1.70;0.80;;;;;;;;;;4976764;28;20474;-63
2021/12/30 09:06:11;;;;;;;1.35;1.10;;;;;;;;;;4990081;28;20057;-65
2021/12/30 09:08:57;;;;;;;1.98;1.27;;;;;;;;;;4977227;28;20026;-61
2021/12/30 09:11:42;;;;;;;3.00;0.82;;;;;;;;;;4976229;28;20030;-69
2021/12/30 09:14:27;;;;;;;2.25;0.90;;;;;;;;;;4976947;28;20046;-73
2021/12/30 09:17:12;;;;;;;9.82;3.72;;;;;;;;;;4970188;28;20181;-71
2021/12/30 09:19:58;;;;;;;1.80;1.00;;;;;;;;;;5003944;28;20049;-73
2021/12/30 09:22:43;;;;;;;4.10;1.00;;;;;;;;;;4964846;28;20053;-72
2021/12/30 09:25:29;;;;;;;3.08;0.80;;;;;;;;;;4957442;28;20039;-71
2021/12/30 09:28:14;;;;;;;1.77;0.80;;;;;;;;;;4970798;28;20120;-71
2021/12/30 09:30:59;;;;;;;3.55;1.38;;;;;;;;;;4991339;28;20044;-60
2021/12/30 09:33:44;;;;;;;52.38;37.40;;;;;;;;;;4994625;28;20084;-63
2021/12/30 09:36:30;;;;;;;9.10;5.07;;;;;;;;;;4976499;28;20038;-61
2021/12/30 09:39:15;;;;;;;4.25;1.73;;;;;;;;;;4989681;28;20022;-60
2021/12/30 09:42:00;;;;;;;2.80;1.63;;;;;;;;;;4975928;28;20023;-61
2021/12/30 09:44:46;;;;;;;2.88;1.00;;;;;;;;;;4967555;28;20393;-65
2021/12/30 09:47:33;;;;;;;1.15;0.88;;;;;;;;;;4975606;28;20148;-68
2021/12/30 09:50:20;;;;;;;1.27;0.73;;;;;;;;;;4976489;28;20053;-61
2021/12/30 09:53:05;;;;;;;1.67;1.10;;;;;;;;;;4975296;28;20030;-63
2021/12/30 09:55:51;;;;;;;1.50;0.80;;;;;;;;;;4975911;28;20030;-61
2021/12/30 09:58:37;;;;;;;0.60;0.60;;;;;;;;;;4955840;28;20410;-62
2021/12/30 10:01:22;;;;;;;1.67;0.68;;;;;;;;;;4956886;28;20041;-64
2021/12/30 10:04:09;;;;;;;1.63;0.80;;;;;;;;;;4994692;28;20034;-70
2021/12/30 10:06:54;;;;;;;1.40;0.80;;;;;;;;;;4990166;28;20069;-73
2021/12/30 10:09:50;;;;;;;1.02;0.90;;;;;;;;;;4988713;28;20045;-63
2021/12/30 10:12:40;;;;;;;0.93;0.80;;;;;;;;;;4975699;28;20026;-63
2021/12/30 10:15:27;;;;;;;1.50;0.85;;;;;;;;;;4955837;28;20047;-62
2021/12/30 10:18:12;;;;;;;0.98;0.88;;;;;;;;;;4962650;28;20022;-64
2021/12/30 10:20:57;;;;;;;1.00;0.90;;;;;;;;;;4970156;28;20045;-62
2021/12/30 10:23:44;;;;;;;0.80;0.80;;;;;;;;;;4957281;28;20023;-63
2021/12/30 10:26:29;;;;;;;1.00;0.80;;;;;;;;;;4989276;28;20031;-74
2021/12/30 10:29:14;;;;;;;1.48;0.70;;;;;;;;;;4975091;28;20550;-73
2021/12/30 10:31:59;;;;;;;2.50;0.80;;;;;;;;;;4975921;28;20088;-73
2021/12/30 10:35:01;;;;;;;1.20;0.98;;;;;;;;;;4974708;28;20031;-77
2021/12/30 10:37:46;;;;;;;4.13;2.55;;;;;;;;;;4994942;28;20034;-73
2021/12/30 10:40:32;;;;;;;9.30;4.85;;;;;;;;;;4960456;28;20113;-72
2021/12/30 10:43:24;;;;;;;0.93;0.80;;;;;;;;;;4962611;28;20031;-71
2021/12/30 10:46:16;;;;;;;1.38;0.90;;;;;;;;;;4976487;28;20145;-73
2021/12/30 10:49:04;;;;;;;1.00;0.90;;;;;;;;;;4981887;28;20030;-73
2021/12/30 10:51:51;;;;;;;0.65;0.60;;;;;;;;;;4981962;28;20042;-72
2021/12/30 10:54:39;;;;;;;0.80;0.75;;;;;;;;;;4981767;28;20050;-72
2021/12/30 10:57:30;;;;;;;1.13;0.90;;;;;;;;;;4995388;28;20034;-73
2021/12/30 11:00:29;;;;;;;0.85;0.80;;;;;;;;;;4981131;28;20022;-68
2021/12/30 11:03:24;;;;;;;5.68;1.73;;;;;;;;;;4981846;28;20022;-74
2021/12/30 11:06:13;;;;;;;3.17;2.50;;;;;;;;;;4995086;28;20678;-74
2021/12/30 11:09:16;;;;;;;2.92;1.83;;;;;;;;;;4990141;28;20026;-73
2021/12/30 11:12:03;;;;;;;1.98;1.33;;;;;;;;;;4962010;28;20109;-73
2021/12/30 11:14:48;;;;;;;1.25;1.15;;;;;;;;;;4949033;28;20039;-73
2021/12/30 11:17:35;;;;;;;0.60;0.60;;;;;;;;;;4977736;28;20022;-69
2021/12/30 11:20:22;;;;;;;0.82;0.82;;;;;;;;;;4981864;28;20065;-69
2021/12/30 11:23:08;;;;;;;1.63;0.82;;;;;;;;;;4972876;28;20425;-66
2021/12/30 11:25:53;;;;;;;2.65;0.85;;;;;;;;;;4981899;28;20034;-67
2021/12/30 11:28:39;;;;;;;2.00;1.00;;;;;;;;;;4967885;28;20393;-67
2021/12/30 11:31:24;;;;;;;0.77;0.73;;;;;;;;;;4981064;28;20030;-66
2021/12/30 11:34:09;;;;;;;1.02;0.85;;;;;;;;;;4981807;28;20046;-70
2021/12/30 11:36:55;;;;;;;1.50;1.40;;;;;;;;;;4980851;28;20486;-73
2021/12/30 11:39:42;;;;;;;1.45;1.35;;;;;;;;;;4985712;28;20048;-62
2021/12/30 11:42:28;;;;;;;1.92;0.80;;;;;;;;;;4996329;28;20053;-61
2021/12/30 11:45:26;;;;;;;0.77;0.77;;;;;;;;;;4994632;28;20569;-63
2021/12/30 11:48:20;;;;;;;1.20;1.10;;;;;;;;;;4980892;28;20065;-63
2021/12/30 11:51:10;;;;;;;0.85;0.80;;;;;;;;;;4979286;28;20459;-62
2021/12/30 11:53:55;;;;;;;3.05;1.10;;;;;;;;;;4977618;28;20026;-63
2021/12/30 11:56:41;;;;;;;5.70;3.63;;;;;;;;;;4991957;28;20030;-73
2021/12/30 11:59:30;;;;;;;1.10;0.82;;;;;;;;;;4977283;28;20498;-67
2021/12/30 12:02:35;;;;;;;0.70;0.65;;;;;;;;;;4991732;28;20112;-67
2021/12/30 12:05:43;;;;;;;1.10;1.00;;;;;;;;;;4968865;28;20429;-67
2021/12/30 12:08:29;;;;;;;1.67;1.58;;;;;;;;;;4977517;28;20517;-68
2021/12/30 12:11:16;;;;;;;2.25;1.40;;;;;;;;;;4993945;28;20046;-68
2021/12/30 12:14:11;;;;;;;0.60;0.60;;;;;;;;;;4995319;28;20030;-71
2021/12/30 12:16:59;;;;;;;1.02;0.80;;;;;;;;;;4991868;28;20037;-69
2021/12/30 12:19:49;;;;;;;0.60;0.60;;;;;;;;;;4991222;28;20026;-69
2021/12/30 12:22:34;;;;;;;0.82;0.73;;;;;;;;;;4964649;28;20085;-70
2021/12/30 12:25:22;;;;;;;0.90;0.63;;;;;;;;;;4957960;28;20038;-69
2021/12/30 12:28:18;;;;;;;0.68;0.68;;;;;;;;;;4971998;28;20113;-69
2021/12/30 12:31:06;;;;;;;0.50;0.50;;;;;;;;;;4958773;28;20092;-68
2021/12/30 12:33:56;;;;;;;0.80;0.60;;;;;;;;;;4956991;28;20473;-72
2021/12/30 12:36:41;;;;;;;1.33;0.70;;;;;;;;;;4977930;28;20030;-68
2021/12/30 12:39:38;;;;;;;0.68;0.68;;;;;;;;;;4976774;28;20702;-68
2021/12/30 12:42:42;;;;;;;2.53;0.70;;;;;;;;;;4977171;28;20042;-71
2021/12/30 12:45:27;;;;;;;0.82;0.70;;;;;;;;;;4983012;28;20030;-69
2021/12/30 12:48:20;;;;;;;1.30;0.60;;;;;;;;;;4964100;28;20042;-70
2021/12/30 12:51:06;;;;;;;0.57;0.57;;;;;;;;;;4976785;28;20026;-69
2021/12/30 12:53:53;;;;;;;2.03;0.50;;;;;;;;;;4977417;28;20034;-68
2021/12/30 12:56:39;;;;;;;0.65;0.60;;;;;;;;;;4976236;28;20038;-67
2021/12/30 12:59:25;;;;;;;0.60;0.60;;;;;;;;;;4990912;28;20025;-68
2021/12/30 13:02:11;;;;;;;0.93;0.90;;;;;;;;;;4990533;28;20033;-68
2021/12/30 13:05:11;;;;;;;0.70;0.60;;;;;;;;;;4958488;28;20113;-68
2021/12/30 13:07:57;;;;;;;0.77;0.60;;;;;;;;;;4977210;28;20054;-72
2021/12/30 13:10:42;;;;;;;0.50;0.50;;;;;;;;;;4989905;28;20034;-70
2021/12/30 13:13:28;;;;;;;0.50;0.50;;;;;;;;;;4963568;28;20026;-71
2021/12/30 13:16:30;;;;;;;0.98;0.43;;;;;;;;;;4982237;28;20336;-73
2021/12/30 13:19:18;;;;;;;0.70;0.50;;;;;;;;;;4976677;28;20092;-72
2021/12/30 13:22:05;;;;;;;0.40;0.40;;;;;;;;;;4976255;28;20022;-74
2021/12/30 13:24:54;;;;;;;1.05;0.60;;;;;;;;;;4976716;28;20035;-72
2021/12/30 13:27:40;;;;;;;;;;;;;;;;;;4976423;28;20077;-64
2021/12/30 13:30:27;;;;;;;0.98;0.60;;;;;;;;;;4976897;28;19913;-70
2021/12/30 13:33:15;;;;;;;0.60;0.60;;;;;;;;;;4989368;28;20065;-72
2021/12/30 13:36:11;;;;;;;1.75;0.93;;;;;;;;;;4989581;28;20050;-71
2021/12/30 13:39:13;;;;;;;3.00;0.80;;;;;;;;;;4957721;28;20031;-71
2021/12/30 13:41:59;;;;;;;1.42;0.63;;;;;;;;;;4975822;28;20037;-72
2021/12/30 13:44:50;;;;;;;1.35;0.98;;;;;;;;;;4976312;28;20605;-68
2021/12/30 13:47:38;;;;;;;1.65;0.80;;;;;;;;;;4992782;28;20022;-64
2021/12/30 13:50:23;;;;;;;1.90;1.20;;;;;;;;;;4992991;28;20334;-70
2021/12/30 13:53:09;;;;;;;0.70;0.60;;;;;;;;;;4989390;28;20111;-68
2021/12/30 13:55:55;;;;;;;1.95;0.98;;;;;;;;;;4989451;28;20510;-69
2021/12/30 13:58:42;;;;;;;0.90;0.82;;;;;;;;;;4974666;28;20031;-70
2021/12/30 14:01:29;;;;;;;1.02;0.77;;;;;;;;;;4989732;28;20030;-68
2021/12/30 14:04:16;;;;;;;0.75;0.60;;;;;;;;;;4965610;28;20034;-67
2021/12/30 14:07:02;;;;;;;0.70;0.70;;;;;;;;;;4956831;28;20027;-69
2021/12/30 14:09:54;;;;;;;1.27;1.13;;;;;;;;;;4970054;28;20125;-71
2021/12/30 14:12:53;;;;;;;26.10;17.10;;;;;;;;;;4971780;28;20061;-70
2021/12/30 14:15:39;;;;;;;;;;;;;;;;;;4975787;28;20034;-68
2021/12/30 14:18:32;;;;;;;4.80;1.73;;;;;;;;;;4961750;28;20273;-69
2021/12/30 14:21:17;;;;;;;2.05;1.10;;;;;;;;;;4983448;28;20028;-69
2021/12/30 14:24:08;;;;;;;0.65;0.60;;;;;;;;;;4988671;28;20034;-74
2021/12/30 14:26:55;;;;;;;1.00;0.80;;;;;;;;;;4976029;28;20121;-75
2021/12/30 14:29:40;;;;;;;0.93;0.80;;;;;;;;;;4988960;28;20053;-72
2021/12/30 14:32:25;;;;;;;1.45;0.98;;;;;;;;;;4975885;28;20033;-73
2021/12/30 14:35:11;;;;;;;1.15;1.00;;;;;;;;;;4988420;28;20461;-77
2021/12/30 14:37:56;;;;;;;4.65;1.58;;;;;;;;;;4989453;28;20129;-74
2021/12/30 14:40:41;;;;;;;3.55;1.00;;;;;;;;;;4975119;28;20036;-64
2021/12/30 14:43:27;;;;;;;0.88;0.80;;;;;;;;;;4975563;28;20358;-69
2021/12/30 14:46:13;;;;;;;2.03;1.00;;;;;;;;;;4969773;28;20042;-68
2021/12/30 14:49:08;;;;;;;1.27;0.77;;;;;;;;;;4970206;28;20026;-69
2021/12/30 14:52:16;;;;;;;2.70;0.93;;;;;;;;;;4993901;28;20053;-68
2021/12/30 14:55:03;;;;;;;3.50;0.95;;;;;;;;;;4988305;28;20045;-67
2021/12/30 14:57:49;;;;;;;9.50;5.43;;;;;;;;;;4988960;28;20058;-68
2021/12/30 15:00:37;;;;;;;9.60;6.90;;;;;;;;;;4974743;28;20038;-64
2021/12/30 15:03:22;;;;;;;8.50;3.53;;;;;;;;;;4975546;28;20027;-68
2021/12/30 15:06:07;;;;;;;4.70;2.30;;;;;;;;;;4988154;28;20393;-68
2021/12/30 15:08:53;;;;;;;12.45;6.03;;;;;;;;;;4975337;28;20038;-68
2021/12/30 15:11:38;;;;;;;3.65;2.03;;;;;;;;;;4974601;28;20034;-67
2021/12/30 15:14:25;;;;;;;5.03;1.90;;;;;;;;;;4974987;28;20460;-69
2021/12/30 15:17:10;;;;;;;3.28;1.80;;;;;;;;;;4956889;28;20023;-71
2021/12/30 15:19:55;;;;;;;5.57;1.80;;;;;;;;;;4956093;28;20019;-68
2021/12/30 15:22:41;;;;;;;6.03;2.42;;;;;;;;;;4969450;28;20065;-73
2021/12/30 15:25:27;;;;;;;3.15;1.40;;;;;;;;;;4995135;28;20114;-74
2021/12/30 15:28:12;;;;;;;3.08;1.50;;;;;;;;;;4978791;28;20433;-75
2021/12/30 15:30:57;;;;;;;1.58;1.00;;;;;;;;;;4992156;28;20038;-73
2021/12/30 15:33:45;;;;;;;2.92;0.90;;;;;;;;;;4978914;28;20022;-75
2021/12/30 15:36:30;;;;;;;4.25;1.15;;;;;;;;;;4978171;28;20536;-73
2021/12/30 15:39:15;;;;;;;1.00;0.90;;;;;;;;;;4978857;28;20026;-71
2021/12/30 15:42:01;;;;;;;1.27;1.13;;;;;;;;;;4969661;28;20027;-70
2021/12/30 15:44:48;;;;;;;2.67;1.10;;;;;;;;;;4959649;28;20061;-69
2021/12/30 15:47:33;;;;;;;12.85;8.45;;;;;;;;;;4984754;28;20022;-70
2021/12/30 15:50:20;;;;;;;12.27;8.80;;;;;;;;;;4978298;28;20022;-71
2021/12/30 15:53:06;;;;;;;3.67;2.20;;;;;;;;;;4977914;28;20665;-69
2021/12/30 15:55:51;;;;;;;3.15;1.80;;;;;;;;;;4996375;28;20045;-67
2021/12/30 15:58:36;;;;;;;3.22;1.42;;;;;;;;;;4993122;28;20034;-66
2021/12/30 16:01:22;;;;;;;4.00;1.73;;;;;;;;;;4991726;28;20100;-64
2021/12/30 16:04:07;;;;;;;3.97;1.60;;;;;;;;;;4963908;28;20486;-65
2021/12/30 16:06:52;;;;;;;3.53;1.73;;;;;;;;;;4978052;28;20034;-65
2021/12/30 16:09:38;;;;;;;3.40;2.03;;;;;;;;;;4972285;28;20045;-64
2021/12/30 16:12:23;;;;;;;3.92;2.15;;;;;;;;;;4960923;28;20105;-70
2021/12/30 16:15:09;;;;;;;5.50;2.13;;;;;;;;;;4985538;28;20417;-70
2021/12/30 16:17:55;;;;;;;6.05;2.88;;;;;;;;;;4976865;28;20121;-67
2021/12/30 16:20:40;;;;;;;4.05;1.73;;;;;;;;;;4977838;28;20030;-70
2021/12/30 16:23:26;;;;;;;4.38;1.77;;;;;;;;;;4977074;28;20026;-68
2021/12/30 16:26:11;;;;;;;5.68;1.98;;;;;;;;;;4977543;28;20478;-67
2021/12/30 16:28:58;;;;;;;5.03;2.08;;;;;;;;;;4971831;28;20101;-67
2021/12/30 16:31:43;;;;;;;4.03;2.22;;;;;;;;;;4991200;28;20033;-69
2021/12/30 16:34:28;;;;;;;2.88;1.55;;;;;;;;;;4976814;28;20128;-67
2021/12/30 16:37:13;;;;;;;2.92;1.60;;;;;;;;;;4990696;28;20050;-67
2021/12/30 16:39:59;;;;;;;3.33;1.73;;;;;;;;;;4984651;28;20027;-64
2021/12/30 16:42:45;;;;;;;3.30;1.67;;;;;;;;;;4958447;28;20026;-63